sensor_id;sensor_type;location;lat;lon;timestamp;temperature;humidity
9776;DHT22;4927;52.472;13.108;2022-10-16T00:04:06;14.90;99.90
9776;DHT22;4927;52.472;13.108;2022-10-16T00:09:13;14.90;99.90
9776;DHT22;4927;52.472;13.108;2022-10-16T00:14:19;14.90;99.90
9776;DHT22;4927;52.472;13.108;2022-10-16T00:19:23;14.90;99.90
9776;DHT22;4927;52.472;13.108;2022-10-16T00:24:30;14.90;99.90
9776;DHT22;4927;52.472;13.108;2022-10-16T00:29:36;14.90;99.90
9776;DHT22;4927;52.472;13.108;2022-10-16T00:34:42;14.90;99.90
9776;DHT22;4927;52.472;13.108;2022-10-16T00:39:49;15.00;99.90
9776;DHT22;4927;52.472;13.108;2022-10-16T00:44:56;15.00;99.90
9776;DHT22;4927;52.472;13.108;2022-10-16T00:50:11;15.10;99.90
9776;DHT22;4927;52.472;13.108;2022-10-16T00:55:17;15.10;99.90
9776;DHT22;4927;52.472;13.108;2022-10-16T01:00:24;15.00;99.90
9776;DHT22;4927;52.472;13.108;2022-10-16T01:05:34;15.00;99.90
9776;DHT22;4927;52.472;13.108;2022-10-16T01:10:44;15.00;99.90
9776;DHT22;4927;52.472;13.108;2022-10-16T01:15:51;15.00;99.90
9776;DHT22;4927;52.472;13.108;2022-10-16T01:21:02;15.10;99.90
9776;DHT22;4927;52.472;13.108;2022-10-16T01:26:20;15.00;99.90
9776;DHT22;4927;52.472;13.108;2022-10-16T01:31:24;14.90;99.90
9776;DHT22;4927;52.472;13.108;2022-10-16T01:36:31;14.80;99.90
9776;DHT22;4927;52.472;13.108;2022-10-16T01:41:36;14.80;99.90
9776;DHT22;4927;52.472;13.108;2022-10-16T01:46:42;14.70;99.90
9776;DHT22;4927;52.472;13.108;2022-10-16T01:51:48;14.60;99.90
9776;DHT22;4927;52.472;13.108;2022-10-16T01:56:54;14.70;99.90
9776;DHT22;4927;52.472;13.108;2022-10-16T02:02:01;14.80;99.90
9776;DHT22;4927;52.472;13.108;2022-10-16T02:07:11;14.70;99.90
9776;DHT22;4927;52.472;13.108;2022-10-16T02:12:24;14.80;99.90
9776;DHT22;4927;52.472;13.108;2022-10-16T02:17:28;14.80;99.90
9776;DHT22;4927;52.472;13.108;2022-10-16T02:22:43;14.80;99.90
9776;DHT22;4927;52.472;13.108;2022-10-16T02:27:56;14.80;99.90
9776;DHT22;4927;52.472;13.108;2022-10-16T02:33:06;14.80;99.90
9776;DHT22;4927;52.472;13.108;2022-10-16T02:38:11;14.80;99.90
9776;DHT22;4927;52.472;13.108;2022-10-16T02:43:17;14.70;99.90
9776;DHT22;4927;52.472;13.108;2022-10-16T02:48:24;14.70;99.90
9776;DHT22;4927;52.472;13.108;2022-10-16T02:53:35;14.60;99.90
9776;DHT22;4927;52.472;13.108;2022-10-16T02:58:41;14.60;99.90
9776;DHT22;4927;52.472;13.108;2022-10-16T03:03:47;14.50;99.90
9776;DHT22;4927;52.472;13.108;2022-10-16T03:08:57;14.40;99.90
9776;DHT22;4927;52.472;13.108;2022-10-16T03:14:04;14.30;99.90
9776;DHT22;4927;52.472;13.108;2022-10-16T03:19:10;14.30;99.90
9776;DHT22;4927;52.472;13.108;2022-10-16T03:24:16;14.10;99.90
9776;DHT22;4927;52.472;13.108;2022-10-16T03:29:23;13.90;99.90
9776;DHT22;4927;52.472;13.108;2022-10-16T03:34:29;13.90;99.90
9776;DHT22;4927;52.472;13.108;2022-10-16T03:39:36;13.90;99.90
9776;DHT22;4927;52.472;13.108;2022-10-16T03:44:46;13.90;99.90
9776;DHT22;4927;52.472;13.108;2022-10-16T03:49:52;13.80;99.90
9776;DHT22;4927;52.472;13.108;2022-10-16T03:54:58;13.80;99.90
9776;DHT22;4927;52.472;13.108;2022-10-16T04:00:06;13.70;99.90
9776;DHT22;4927;52.472;13.108;2022-10-16T04:05:10;13.70;99.90
9776;DHT22;4927;52.472;13.108;2022-10-16T04:10:16;13.70;99.90
9776;DHT22;4927;52.472;13.108;2022-10-16T04:15:23;13.60;99.90
9776;DHT22;4927;52.472;13.108;2022-10-16T04:20:29;13.60;99.90
9776;DHT22;4927;52.472;13.108;2022-10-16T04:25:35;13.50;99.90
9776;DHT22;4927;52.472;13.108;2022-10-16T04:30:41;13.50;99.90
9776;DHT22;4927;52.472;13.108;2022-10-16T04:35:48;13.50;99.90
9776;DHT22;4927;52.472;13.108;2022-10-16T04:40:54;13.40;99.90
9776;DHT22;4927;52.472;13.108;2022-10-16T04:46:00;13.30;99.90
9776;DHT22;4927;52.472;13.108;2022-10-16T04:51:07;13.30;99.90
9776;DHT22;4927;52.472;13.108;2022-10-16T04:56:17;13.30;99.90
9776;DHT22;4927;52.472;13.108;2022-10-16T05:01:24;13.20;99.90
9776;DHT22;4927;52.472;13.108;2022-10-16T05:06:34;13.10;99.90
9776;DHT22;4927;52.472;13.108;2022-10-16T05:11:40;13.20;99.90
9776;DHT22;4927;52.472;13.108;2022-10-16T05:16:46;13.20;99.90
9776;DHT22;4927;52.472;13.108;2022-10-16T05:21:53;13.20;99.90
9776;DHT22;4927;52.472;13.108;2022-10-16T05:26:59;13.30;99.90
9776;DHT22;4927;52.472;13.108;2022-10-16T05:32:09;13.40;99.90
9776;DHT22;4927;52.472;13.108;2022-10-16T05:37:49;13.30;99.90
9776;DHT22;4927;52.472;13.108;2022-10-16T05:42:55;13.40;99.90
9776;DHT22;4927;52.472;13.108;2022-10-16T05:48:06;13.40;99.90
9776;DHT22;4927;52.472;13.108;2022-10-16T05:53:12;13.40;99.90
9776;DHT22;4927;52.472;13.108;2022-10-16T05:58:18;13.50;99.90
9776;DHT22;4927;52.472;13.108;2022-10-16T06:03:25;13.50;99.90
9776;DHT22;4927;52.472;13.108;2022-10-16T06:08:29;13.60;99.90
9776;DHT22;4927;52.472;13.108;2022-10-16T06:13:35;13.60;99.90
9776;DHT22;4927;52.472;13.108;2022-10-16T06:18:41;13.70;99.90
9776;DHT22;4927;52.472;13.108;2022-10-16T06:23:47;13.80;99.90
9776;DHT22;4927;52.472;13.108;2022-10-16T06:28:59;13.80;99.90
9776;DHT22;4927;52.472;13.108;2022-10-16T06:34:05;13.80;99.90
9776;DHT22;4927;52.472;13.108;2022-10-16T06:39:11;13.90;99.90
9776;DHT22;4927;52.472;13.108;2022-10-16T06:44:17;13.90;99.90
9776;DHT22;4927;52.472;13.108;2022-10-16T06:49:23;14.00;99.90
9776;DHT22;4927;52.472;13.108;2022-10-16T06:54:30;14.20;99.90
9776;DHT22;4927;52.472;13.108;2022-10-16T06:59:36;14.30;99.90
9776;DHT22;4927;52.472;13.108;2022-10-16T07:04:43;14.60;99.90
9776;DHT22;4927;52.472;13.108;2022-10-16T07:09:49;14.60;99.90
9776;DHT22;4927;52.472;13.108;2022-10-16T07:14:55;14.90;99.90
9776;DHT22;4927;52.472;13.108;2022-10-16T07:20:02;15.10;99.90
9776;DHT22;4927;52.472;13.108;2022-10-16T07:25:07;15.20;99.90
9776;DHT22;4927;52.472;13.108;2022-10-16T07:30:14;15.50;99.90
9776;DHT22;4927;52.472;13.108;2022-10-16T07:35:20;15.50;99.90
9776;DHT22;4927;52.472;13.108;2022-10-16T07:40:27;15.40;99.90
9776;DHT22;4927;52.472;13.108;2022-10-16T07:45:33;15.50;99.90
9776;DHT22;4927;52.472;13.108;2022-10-16T07:50:37;15.50;99.90
9776;DHT22;4927;52.472;13.108;2022-10-16T07:55:43;15.60;99.90
9776;DHT22;4927;52.472;13.108;2022-10-16T08:00:50;15.60;99.90
9776;DHT22;4927;52.472;13.108;2022-10-16T08:05:54;15.60;99.90
9776;DHT22;4927;52.472;13.108;2022-10-16T08:11:00;15.70;99.90
9776;DHT22;4927;52.472;13.108;2022-10-16T08:16:07;15.80;99.90
9776;DHT22;4927;52.472;13.108;2022-10-16T08:21:16;15.90;99.90
9776;DHT22;4927;52.472;13.108;2022-10-16T08:26:18;16.00;99.90
9776;DHT22;4927;52.472;13.108;2022-10-16T08:31:24;16.10;99.90
9776;DHT22;4927;52.472;13.108;2022-10-16T08:36:31;16.10;99.90
9776;DHT22;4927;52.472;13.108;2022-10-16T08:47:12;16.40;99.90
9776;DHT22;4927;52.472;13.108;2022-10-16T08:52:14;16.50;99.90
9776;DHT22;4927;52.472;13.108;2022-10-16T08:57:21;16.70;99.90
9776;DHT22;4927;52.472;13.108;2022-10-16T09:02:35;16.70;99.90
9776;DHT22;4927;52.472;13.108;2022-10-16T09:07:57;16.80;99.90
9776;DHT22;4927;52.472;13.108;2022-10-16T09:13:12;16.90;99.90
9776;DHT22;4927;52.472;13.108;2022-10-16T09:23:32;17.10;99.90
9776;DHT22;4927;52.472;13.108;2022-10-16T09:28:37;17.20;99.90
9776;DHT22;4927;52.472;13.108;2022-10-16T09:33:43;17.10;99.90
9776;DHT22;4927;52.472;13.108;2022-10-16T09:38:49;17.00;99.90
9776;DHT22;4927;52.472;13.108;2022-10-16T09:43:56;17.10;99.90
9776;DHT22;4927;52.472;13.108;2022-10-16T09:49:05;17.20;99.90
9776;DHT22;4927;52.472;13.108;2022-10-16T09:54:13;17.30;99.90
9776;DHT22;4927;52.472;13.108;2022-10-16T09:59:20;17.30;99.90
9776;DHT22;4927;52.472;13.108;2022-10-16T10:04:25;17.60;99.90
9776;DHT22;4927;52.472;13.108;2022-10-16T10:09:36;17.70;99.90
9776;DHT22;4927;52.472;13.108;2022-10-16T10:14:41;17.80;99.90
9776;DHT22;4927;52.472;13.108;2022-10-16T10:19:48;17.90;99.90
9776;DHT22;4927;52.472;13.108;2022-10-16T10:24:55;18.00;99.90
9776;DHT22;4927;52.472;13.108;2022-10-16T10:30:06;18.00;99.90
9776;DHT22;4927;52.472;13.108;2022-10-16T10:40:30;18.30;99.90
9776;DHT22;4927;52.472;13.108;2022-10-16T10:45:41;18.50;99.90
9776;DHT22;4927;52.472;13.108;2022-10-16T10:50:49;18.80;99.90
9776;DHT22;4927;52.472;13.108;2022-10-16T10:56:04;19.10;99.90
9776;DHT22;4927;52.472;13.108;2022-10-16T11:01:18;19.50;99.90
9776;DHT22;4927;52.472;13.108;2022-10-16T11:06:30;20.10;99.90
9776;DHT22;4927;52.472;13.108;2022-10-16T11:12:00;20.10;99.90
9776;DHT22;4927;52.472;13.108;2022-10-16T11:20:37;19.90;99.90
9776;DHT22;4927;52.472;13.108;2022-10-16T11:25:41;19.60;99.90
9776;DHT22;4927;52.472;13.108;2022-10-16T11:31:04;19.40;99.90
9776;DHT22;4927;52.472;13.108;2022-10-16T11:36:19;19.10;99.90
9776;DHT22;4927;52.472;13.108;2022-10-16T11:41:32;18.70;99.90
9776;DHT22;4927;52.472;13.108;2022-10-16T11:46:48;18.80;99.90
9776;DHT22;4927;52.472;13.108;2022-10-16T11:52:13;18.70;99.90
9776;DHT22;4927;52.472;13.108;2022-10-16T11:57:24;18.70;99.90
9776;DHT22;4927;52.472;13.108;2022-10-16T12:02:44;18.70;99.90
9776;DHT22;4927;52.472;13.108;2022-10-16T12:08:08;18.60;99.90
9776;DHT22;4927;52.472;13.108;2022-10-16T12:18:31;19.00;99.90
9776;DHT22;4927;52.472;13.108;2022-10-16T12:23:38;19.30;99.90
9776;DHT22;4927;52.472;13.108;2022-10-16T12:28:42;19.50;99.90
9776;DHT22;4927;52.472;13.108;2022-10-16T12:33:56;19.60;99.90
9776;DHT22;4927;52.472;13.108;2022-10-16T12:39:00;19.70;99.90
9776;DHT22;4927;52.472;13.108;2022-10-16T12:44:21;20.00;99.90
9776;DHT22;4927;52.472;13.108;2022-10-16T12:54:34;20.20;99.90
9776;DHT22;4927;52.472;13.108;2022-10-16T12:59:55;20.20;99.90
9776;DHT22;4927;52.472;13.108;2022-10-16T13:05:15;20.60;99.90
9776;DHT22;4927;52.472;13.108;2022-10-16T13:10:36;20.60;99.90
9776;DHT22;4927;52.472;13.108;2022-10-16T13:15:47;20.50;99.90
9776;DHT22;4927;52.472;13.108;2022-10-16T13:26:11;20.30;99.90
9776;DHT22;4927;52.472;13.108;2022-10-16T13:31:17;20.10;99.90
9776;DHT22;4927;52.472;13.108;2022-10-16T13:36:22;19.90;99.90
9776;DHT22;4927;52.472;13.108;2022-10-16T13:41:27;20.00;99.90
9776;DHT22;4927;52.472;13.108;2022-10-16T13:46:33;19.90;99.90
9776;DHT22;4927;52.472;13.108;2022-10-16T13:51:40;20.00;99.90
9776;DHT22;4927;52.472;13.108;2022-10-16T13:56:46;20.10;99.90
9776;DHT22;4927;52.472;13.108;2022-10-16T14:01:53;19.80;99.90
9776;DHT22;4927;52.472;13.108;2022-10-16T14:06:59;19.70;99.90
9776;DHT22;4927;52.472;13.108;2022-10-16T14:12:08;19.60;99.90
9776;DHT22;4927;52.472;13.108;2022-10-16T14:17:16;19.50;99.90
9776;DHT22;4927;52.472;13.108;2022-10-16T14:22:35;19.40;99.90
9776;DHT22;4927;52.472;13.108;2022-10-16T14:27:41;19.30;99.90
9776;DHT22;4927;52.472;13.108;2022-10-16T14:32:53;19.20;99.90
9776;DHT22;4927;52.472;13.108;2022-10-16T14:37:59;19.10;99.90
9776;DHT22;4927;52.472;13.108;2022-10-16T14:43:04;19.00;99.90
9776;DHT22;4927;52.472;13.108;2022-10-16T14:48:14;18.90;99.90
9776;DHT22;4927;52.472;13.108;2022-10-16T14:53:19;18.80;99.90
9776;DHT22;4927;52.472;13.108;2022-10-16T14:58:26;18.70;99.90
9776;DHT22;4927;52.472;13.108;2022-10-16T15:03:32;18.70;99.90
9776;DHT22;4927;52.472;13.108;2022-10-16T15:08:39;18.70;99.90
9776;DHT22;4927;52.472;13.108;2022-10-16T15:13:45;18.70;99.90
9776;DHT22;4927;52.472;13.108;2022-10-16T15:18:51;18.60;99.90
9776;DHT22;4927;52.472;13.108;2022-10-16T15:23:57;18.40;99.90
9776;DHT22;4927;52.472;13.108;2022-10-16T15:29:03;18.20;99.90
9776;DHT22;4927;52.472;13.108;2022-10-16T15:34:10;18.00;99.90
9776;DHT22;4927;52.472;13.108;2022-10-16T15:39:17;17.90;99.90
9776;DHT22;4927;52.472;13.108;2022-10-16T15:44:22;17.50;99.90
9776;DHT22;4927;52.472;13.108;2022-10-16T15:49:28;17.60;99.90
9776;DHT22;4927;52.472;13.108;2022-10-16T15:54:35;17.30;99.90
9776;DHT22;4927;52.472;13.108;2022-10-16T15:59:41;17.10;99.90
9776;DHT22;4927;52.472;13.108;2022-10-16T16:04:48;16.60;99.90
9776;DHT22;4927;52.472;13.108;2022-10-16T16:09:54;16.50;99.90
9776;DHT22;4927;52.472;13.108;2022-10-16T16:15:00;16.20;99.90
9776;DHT22;4927;52.472;13.108;2022-10-16T16:20:08;15.90;99.90
9776;DHT22;4927;52.472;13.108;2022-10-16T16:25:15;15.50;99.90
9776;DHT22;4927;52.472;13.108;2022-10-16T16:30:21;15.20;99.90
9776;DHT22;4927;52.472;13.108;2022-10-16T16:35:27;15.00;99.90
9776;DHT22;4927;52.472;13.108;2022-10-16T16:40:33;14.90;99.90
9776;DHT22;4927;52.472;13.108;2022-10-16T16:45:40;14.70;99.90
9776;DHT22;4927;52.472;13.108;2022-10-16T16:50:45;14.30;99.90
9776;DHT22;4927;52.472;13.108;2022-10-16T16:55:51;14.30;99.90
9776;DHT22;4927;52.472;13.108;2022-10-16T17:00:57;14.10;99.90
9776;DHT22;4927;52.472;13.108;2022-10-16T17:06:05;13.80;99.90
9776;DHT22;4927;52.472;13.108;2022-10-16T17:11:12;13.70;99.90
9776;DHT22;4927;52.472;13.108;2022-10-16T17:16:15;13.50;99.90
9776;DHT22;4927;52.472;13.108;2022-10-16T17:21:20;13.30;99.90
9776;DHT22;4927;52.472;13.108;2022-10-16T17:26:24;13.30;99.90
9776;DHT22;4927;52.472;13.108;2022-10-16T17:31:31;13.10;99.90
9776;DHT22;4927;52.472;13.108;2022-10-16T17:36:37;12.90;99.90
9776;DHT22;4927;52.472;13.108;2022-10-16T17:41:41;12.80;99.90
9776;DHT22;4927;52.472;13.108;2022-10-16T17:46:48;12.70;99.90
9776;DHT22;4927;52.472;13.108;2022-10-16T17:51:53;12.70;99.90
9776;DHT22;4927;52.472;13.108;2022-10-16T17:57:00;12.50;99.90
9776;DHT22;4927;52.472;13.108;2022-10-16T18:02:08;12.30;99.90
9776;DHT22;4927;52.472;13.108;2022-10-16T18:07:11;12.10;99.90
9776;DHT22;4927;52.472;13.108;2022-10-16T18:12:17;12.10;99.90
9776;DHT22;4927;52.472;13.108;2022-10-16T18:17:24;12.10;99.90
9776;DHT22;4927;52.472;13.108;2022-10-16T18:22:31;12.10;99.90
9776;DHT22;4927;52.472;13.108;2022-10-16T18:27:36;12.10;99.90
9776;DHT22;4927;52.472;13.108;2022-10-16T18:32:41;11.90;99.90
9776;DHT22;4927;52.472;13.108;2022-10-16T18:37:48;11.80;99.90
9776;DHT22;4927;52.472;13.108;2022-10-16T18:42:54;11.80;99.90
9776;DHT22;4927;52.472;13.108;2022-10-16T18:48:01;11.60;99.90
9776;DHT22;4927;52.472;13.108;2022-10-16T18:53:07;11.50;99.90
9776;DHT22;4927;52.472;13.108;2022-10-16T18:58:14;11.50;99.90
9776;DHT22;4927;52.472;13.108;2022-10-16T19:03:20;11.50;99.90
9776;DHT22;4927;52.472;13.108;2022-10-16T19:08:26;11.50;99.90
9776;DHT22;4927;52.472;13.108;2022-10-16T19:13:33;11.40;99.90
9776;DHT22;4927;52.472;13.108;2022-10-16T19:18:39;11.40;99.90
9776;DHT22;4927;52.472;13.108;2022-10-16T19:23:50;11.10;99.90
9776;DHT22;4927;52.472;13.108;2022-10-16T19:28:54;11.10;99.90
9776;DHT22;4927;52.472;13.108;2022-10-16T19:34:04;11.10;99.90
9776;DHT22;4927;52.472;13.108;2022-10-16T19:39:11;11.10;99.90
9776;DHT22;4927;52.472;13.108;2022-10-16T19:44:17;11.20;99.90
9776;DHT22;4927;52.472;13.108;2022-10-16T19:49:23;11.20;99.90
9776;DHT22;4927;52.472;13.108;2022-10-16T19:54:29;11.20;99.90
9776;DHT22;4927;52.472;13.108;2022-10-16T19:59:36;11.20;99.90
9776;DHT22;4927;52.472;13.108;2022-10-16T20:04:42;11.20;99.90
9776;DHT22;4927;52.472;13.108;2022-10-16T20:09:49;11.20;99.90
9776;DHT22;4927;52.472;13.108;2022-10-16T20:14:55;11.20;99.90
9776;DHT22;4927;52.472;13.108;2022-10-16T20:20:01;11.10;99.90
9776;DHT22;4927;52.472;13.108;2022-10-16T20:25:07;11.10;99.90
9776;DHT22;4927;52.472;13.108;2022-10-16T20:30:14;11.10;99.90
9776;DHT22;4927;52.472;13.108;2022-10-16T20:35:20;11.20;99.90
9776;DHT22;4927;52.472;13.108;2022-10-16T20:40:27;11.20;99.90
9776;DHT22;4927;52.472;13.108;2022-10-16T20:45:34;11.10;99.90
9776;DHT22;4927;52.472;13.108;2022-10-16T20:50:40;11.20;99.90
9776;DHT22;4927;52.472;13.108;2022-10-16T20:55:46;11.20;99.90
9776;DHT22;4927;52.472;13.108;2022-10-16T21:00:53;11.20;99.90
9776;DHT22;4927;52.472;13.108;2022-10-16T21:06:00;11.20;99.90
9776;DHT22;4927;52.472;13.108;2022-10-16T21:11:15;11.30;99.90
9776;DHT22;4927;52.472;13.108;2022-10-16T21:16:20;11.30;99.90
9776;DHT22;4927;52.472;13.108;2022-10-16T21:21:28;11.30;99.90
9776;DHT22;4927;52.472;13.108;2022-10-16T21:26:35;11.20;99.90
9776;DHT22;4927;52.472;13.108;2022-10-16T21:31:41;11.20;99.90
9776;DHT22;4927;52.472;13.108;2022-10-16T21:36:45;11.20;99.90
9776;DHT22;4927;52.472;13.108;2022-10-16T21:41:51;11.20;99.90
9776;DHT22;4927;52.472;13.108;2022-10-16T21:46:58;11.10;99.90
9776;DHT22;4927;52.472;13.108;2022-10-16T21:52:05;11.10;99.90
9776;DHT22;4927;52.472;13.108;2022-10-16T21:57:11;11.00;99.90
9776;DHT22;4927;52.472;13.108;2022-10-16T22:02:17;11.00;99.90
9776;DHT22;4927;52.472;13.108;2022-10-16T22:07:24;10.90;99.90
9776;DHT22;4927;52.472;13.108;2022-10-16T22:12:30;10.90;99.90
9776;DHT22;4927;52.472;13.108;2022-10-16T22:17:36;10.90;99.90
9776;DHT22;4927;52.472;13.108;2022-10-16T22:23:04;10.90;99.90
9776;DHT22;4927;52.472;13.108;2022-10-16T22:28:11;10.90;99.90
9776;DHT22;4927;52.472;13.108;2022-10-16T22:33:17;10.90;99.90
9776;DHT22;4927;52.472;13.108;2022-10-16T22:38:23;10.80;99.90
9776;DHT22;4927;52.472;13.108;2022-10-16T22:43:29;10.80;99.90
9776;DHT22;4927;52.472;13.108;2022-10-16T22:48:36;10.80;99.90
9776;DHT22;4927;52.472;13.108;2022-10-16T22:53:43;10.90;99.90
9776;DHT22;4927;52.472;13.108;2022-10-16T22:58:49;11.00;99.90
9776;DHT22;4927;52.472;13.108;2022-10-16T23:03:56;11.00;99.90
9776;DHT22;4927;52.472;13.108;2022-10-16T23:09:02;11.10;99.90
9776;DHT22;4927;52.472;13.108;2022-10-16T23:14:08;11.10;99.90
9776;DHT22;4927;52.472;13.108;2022-10-16T23:19:13;11.10;99.90
9776;DHT22;4927;52.472;13.108;2022-10-16T23:24:19;11.20;99.90
9776;DHT22;4927;52.472;13.108;2022-10-16T23:29:25;11.20;99.90
9776;DHT22;4927;52.472;13.108;2022-10-16T23:34:31;11.30;99.90
9776;DHT22;4927;52.472;13.108;2022-10-16T23:39:38;11.40;99.90
9776;DHT22;4927;52.472;13.108;2022-10-16T23:44:44;11.50;99.90
9776;DHT22;4927;52.472;13.108;2022-10-16T23:49:48;11.50;99.90
9776;DHT22;4927;52.472;13.108;2022-10-16T23:54:54;11.60;99.90
9776;DHT22;4927;52.472;13.108;2022-10-16T23:59:59;11.60;99.90
